createdAt,value
2019-03-15T00:02:01.178Z,89.40
2019-03-15T00:04:30.553Z,89.00
2019-03-15T00:07:02.863Z,89.40
2019-03-15T00:09:35.097Z,89.20
2019-03-15T00:12:08.286Z,89.00
2019-03-15T00:14:37.855Z,88.80
2019-03-15T00:17:07.208Z,89.10
2019-03-15T00:19:38.032Z,88.90
2019-03-15T00:22:07.382Z,89.20
2019-03-15T00:24:36.821Z,88.70
2019-03-15T00:27:06.217Z,88.50
2019-03-15T00:29:35.896Z,88.30
2019-03-15T00:32:06.700Z,88.50
2019-03-15T00:34:36.093Z,88.70
2019-03-15T00:37:05.678Z,88.50
2019-03-15T00:39:35.190Z,88.90
2019-03-15T00:42:04.711Z,89.40
2019-03-15T00:44:34.522Z,89.60
2019-03-15T00:47:03.926Z,89.30
2019-03-15T00:49:33.366Z,89.20
2019-03-15T00:52:02.936Z,88.90
2019-03-15T00:54:32.377Z,88.90
2019-03-15T00:57:01.742Z,88.70
2019-03-15T00:59:31.247Z,88.90
2019-03-15T01:02:00.622Z,88.70
2019-03-15T01:04:30.086Z,89.00
2019-03-15T01:06:59.587Z,88.40
2019-03-15T01:09:29.231Z,88.20
2019-03-15T01:11:58.502Z,88.40
2019-03-15T01:14:29.247Z,88.70
2019-03-15T01:16:58.598Z,88.50
2019-03-15T01:19:28.142Z,88.90
2019-03-15T01:21:57.508Z,88.70
2019-03-15T01:24:26.952Z,88.70
2019-03-15T01:26:56.672Z,88.90
2019-03-15T01:29:26.126Z,88.80
2019-03-15T01:31:55.639Z,88.50
2019-03-15T01:34:26.238Z,88.70
2019-03-15T01:36:55.531Z,88.20
2019-03-15T01:39:25.164Z,88.20
2019-03-15T01:41:54.593Z,88.00
2019-03-15T01:44:26.575Z,88.10
2019-03-15T01:46:55.919Z,88.50
2019-03-15T01:49:25.400Z,88.70
2019-03-15T01:51:54.803Z,88.60
2019-03-15T01:54:24.203Z,88.50
2019-03-15T01:56:53.518Z,88.50
2019-03-15T01:59:23.046Z,88.30
2019-03-15T02:01:52.457Z,88.20
2019-03-15T02:04:23.343Z,87.90
2019-03-15T02:06:55.363Z,88.10
2019-03-15T02:09:24.662Z,88.30
2019-03-15T02:11:54.215Z,88.50
2019-03-15T02:14:23.575Z,88.60
2019-03-15T02:16:53.016Z,88.60
2019-03-15T02:19:23.396Z,88.90
2019-03-15T02:21:52.745Z,88.70
2019-03-15T02:24:22.107Z,89.00
2019-03-15T02:26:51.403Z,89.20
2019-03-15T02:29:20.915Z,89.60
2019-03-15T02:31:50.279Z,89.90
2019-03-15T02:34:19.794Z,90.00
2019-03-15T02:36:49.358Z,90.00
2019-03-15T02:39:19.922Z,90.10
2019-03-15T02:41:49.679Z,90.20
2019-03-15T02:44:19.003Z,90.30
2019-03-15T02:46:48.508Z,90.20
2019-03-15T02:49:19.687Z,90.10
2019-03-15T02:51:49.902Z,89.90
2019-03-15T02:54:20.740Z,89.30
2019-03-15T02:56:50.180Z,88.80
2019-03-15T02:59:21.031Z,88.60
2019-03-15T03:01:51.483Z,88.70
2019-03-15T03:04:20.922Z,89.00
2019-03-15T03:06:50.354Z,89.30
2019-03-15T03:09:19.762Z,89.40
2019-03-15T03:11:50.429Z,89.50
2019-03-15T03:14:20.034Z,89.80
2019-03-15T03:16:49.625Z,89.50
2019-03-15T03:19:19.147Z,89.60
2019-03-15T03:21:48.583Z,89.50
2019-03-15T03:24:17.960Z,89.20
2019-03-15T03:26:47.460Z,89.10
2019-03-15T03:29:16.876Z,89.00
2019-03-15T03:31:46.359Z,88.90
2019-03-15T03:34:16.183Z,89.10
2019-03-15T03:36:45.614Z,88.80
2019-03-15T03:39:17.739Z,88.80
2019-03-15T03:41:47.015Z,88.60
2019-03-15T03:44:16.580Z,88.80
2019-03-15T03:46:46.006Z,89.10
2019-03-15T03:49:15.432Z,89.10
2019-03-15T03:51:44.824Z,89.30
2019-03-15T03:54:14.177Z,89.10
2019-03-15T03:56:43.583Z,89.20
2019-03-15T03:59:13.208Z,88.80
2019-03-15T04:01:42.582Z,88.60
2019-03-15T04:04:12.127Z,88.10
2019-03-15T04:06:41.824Z,88.30
2019-03-15T04:09:11.308Z,88.40
2019-03-15T04:11:54.251Z,88.30
2019-03-15T04:14:12.010Z,88.60
2019-03-15T04:16:42.217Z,88.70
2019-03-15T04:19:11.483Z,88.90
2019-03-15T04:21:41.006Z,88.90
2019-03-15T04:24:10.393Z,89.30
2019-03-15T04:26:40.960Z,89.50
2019-03-15T04:29:10.292Z,89.30
2019-03-15T04:31:40.905Z,89.40
2019-03-15T04:34:12.592Z,89.30
2019-03-15T04:36:42.274Z,89.30
2019-03-15T04:39:13.933Z,89.60
2019-03-15T04:41:42.695Z,89.70
2019-03-15T04:44:12.174Z,89.70
2019-03-15T04:46:41.806Z,89.70
2019-03-15T04:49:11.080Z,89.30
2019-03-15T04:51:42.166Z,89.40
2019-03-15T04:54:11.593Z,89.40
2019-03-15T04:56:41.038Z,89.30
2019-03-15T04:59:10.458Z,89.50
2019-03-15T05:01:39.856Z,89.60
2019-03-15T05:04:09.459Z,89.30
2019-03-15T05:06:38.926Z,88.80
2019-03-15T05:09:08.554Z,88.90
2019-03-15T05:11:37.958Z,88.60
2019-03-15T05:14:08.430Z,88.20
2019-03-15T05:16:37.793Z,87.50
2019-03-15T05:19:07.214Z,87.00
2019-03-15T05:21:36.591Z,86.10
2019-03-15T05:24:05.895Z,85.80
2019-03-15T05:26:35.394Z,84.90
2019-03-15T05:29:06.129Z,84.80
2019-03-15T05:31:36.629Z,84.60
2019-03-15T05:34:06.009Z,84.10
2019-03-15T05:36:36.625Z,83.80
2019-03-15T05:39:06.916Z,83.40
2019-03-15T05:41:36.398Z,82.50
2019-03-15T05:44:05.681Z,82.20
2019-03-15T05:46:35.149Z,82.00
2019-03-15T05:49:05.653Z,82.30
2019-03-15T05:51:35.087Z,82.60
2019-03-15T05:54:05.659Z,81.70
2019-03-15T05:56:35.223Z,81.80
2019-03-15T05:59:04.566Z,81.80
2019-03-15T06:01:36.365Z,81.50
2019-03-15T06:04:06.028Z,81.20
2019-03-15T06:06:35.671Z,81.50
2019-03-15T06:09:06.071Z,81.50
2019-03-15T06:11:37.816Z,82.50
2019-03-15T06:14:07.186Z,83.50
2019-03-15T06:16:37.542Z,85.70
2019-03-15T06:19:06.815Z,85.50
2019-03-15T06:21:36.256Z,86.40
2019-03-15T06:24:05.611Z,87.30
2019-03-15T06:26:34.991Z,88.40
2019-03-15T06:29:04.352Z,89.00
2019-03-15T06:31:34.866Z,89.60
2019-03-15T06:34:04.145Z,90.30
2019-03-15T06:36:34.071Z,90.70
2019-03-15T06:39:04.387Z,90.60
2019-03-15T06:41:33.689Z,91.30
2019-03-15T06:44:03.259Z,91.80
2019-03-15T06:46:32.533Z,92.60
2019-03-15T06:49:01.999Z,92.60
2019-03-15T06:51:35.721Z,92.40
2019-03-15T06:54:11.374Z,92.20
2019-03-15T06:56:36.624Z,92.60
2019-03-15T06:59:06.737Z,90.90
2019-03-15T07:01:38.508Z,91.40
2019-03-15T07:04:09.132Z,92.00
2019-03-15T07:06:41.698Z,91.00
2019-03-15T07:09:11.984Z,91.30
2019-03-15T07:11:43.799Z,90.60
2019-03-15T07:14:13.167Z,90.20
2019-03-15T07:16:44.952Z,88.20
2019-03-15T07:19:25.694Z,89.00
2019-03-15T07:21:49.548Z,89.40
2019-03-15T07:24:25.269Z,87.40
2019-03-15T07:26:54.298Z,79.60
2019-03-15T07:29:23.886Z,78.90
2019-03-15T07:31:55.272Z,77.90
2019-03-15T07:34:25.018Z,72.80
2019-03-15T07:36:57.507Z,65.90
2019-03-15T07:39:26.958Z,59.70
2019-03-15T07:41:58.626Z,57.70
2019-03-15T07:44:28.774Z,55.40
2019-03-15T07:47:06.792Z,53.30
2019-03-15T07:49:36.282Z,54.30
2019-03-15T07:52:09.199Z,57.70
2019-03-15T07:54:38.746Z,59.50
2019-03-15T07:57:11.822Z,62.00
2019-03-15T07:59:45.839Z,64.20
2019-03-15T08:02:34.489Z,64.90
2019-03-15T08:05:05.423Z,66.00
2019-03-15T08:07:44.449Z,65.80
2019-03-15T08:10:08.728Z,64.10
2019-03-15T08:12:40.266Z,58.30
2019-03-15T08:15:09.352Z,52.40
2019-03-15T08:17:38.694Z,48.90
2019-03-15T08:20:10.149Z,46.00
2019-03-15T08:22:39.582Z,45.00
2019-03-15T08:25:09.668Z,44.30
2019-03-15T08:27:39.036Z,45.80
2019-03-15T08:30:10.687Z,46.80
2019-03-15T08:32:43.379Z,47.20
2019-03-15T08:35:12.381Z,46.50
2019-03-15T08:37:41.891Z,43.60
2019-03-15T08:40:11.764Z,42.20
2019-03-15T08:42:42.478Z,40.70
2019-03-15T08:45:14.536Z,41.30
2019-03-15T08:47:46.931Z,42.10
2019-03-15T08:50:16.534Z,41.30
2019-03-15T08:52:54.039Z,44.20
2019-03-15T08:55:25.202Z,45.90
2019-03-15T08:57:54.455Z,45.70
2019-03-15T09:00:24.060Z,45.90
2019-03-15T09:02:57.734Z,45.60
2019-03-15T09:05:30.882Z,45.40
2019-03-15T09:08:00.610Z,45.20
2019-03-15T09:10:31.282Z,45.60
2019-03-15T09:13:01.890Z,47.80
2019-03-15T09:15:31.417Z,49.70
2019-03-15T09:18:02.167Z,50.60
2019-03-15T09:20:32.164Z,53.20
2019-03-15T09:23:03.562Z,52.90
2019-03-15T09:25:32.954Z,53.00
2019-03-15T09:28:02.418Z,51.40
2019-03-15T09:30:32.957Z,50.70
2019-03-15T09:33:03.304Z,50.90
2019-03-15T09:35:33.293Z,53.60
2019-03-15T09:38:05.643Z,57.80
2019-03-15T09:40:35.012Z,58.60
2019-03-15T09:43:04.562Z,56.90
2019-03-15T09:45:35.242Z,55.00
2019-03-15T09:48:12.030Z,55.50
2019-03-15T09:50:51.105Z,54.90
2019-03-15T09:53:19.518Z,54.00
2019-03-15T09:55:48.942Z,51.20
2019-03-15T09:58:22.687Z,50.70
2019-03-15T10:00:57.083Z,49.50
2019-03-15T10:03:36.459Z,47.80
2019-03-15T10:06:14.848Z,49.30
2019-03-15T10:08:41.837Z,49.10
2019-03-15T10:11:21.702Z,49.00
2019-03-15T10:13:53.947Z,48.10
2019-03-15T10:16:23.430Z,47.50
2019-03-15T10:18:57.541Z,47.40
2019-03-15T10:21:27.172Z,46.60
2019-03-15T10:23:59.990Z,46.50
2019-03-15T10:26:30.058Z,46.40
2019-03-15T10:29:14.233Z,45.70
2019-03-15T10:31:35.166Z,46.60
2019-03-15T10:34:05.904Z,47.70
2019-03-15T10:36:35.618Z,49.20
2019-03-15T10:39:10.409Z,49.30
2019-03-15T10:41:47.687Z,48.30
2019-03-15T10:44:17.199Z,48.00
2019-03-15T10:46:50.513Z,48.70
2019-03-15T10:49:30.844Z,48.80
2019-03-15T10:52:00.647Z,48.90
2019-03-15T10:54:33.332Z,50.10
2019-03-15T10:57:04.517Z,50.40
2019-03-15T10:59:39.846Z,49.10
2019-03-15T11:02:14.043Z,48.90
2019-03-15T11:04:44.703Z,48.80
2019-03-15T11:07:17.604Z,48.70
2019-03-15T11:09:49.136Z,47.60
2019-03-15T11:12:20.362Z,47.30
2019-03-15T11:14:51.903Z,48.60
2019-03-15T11:17:28.415Z,51.30
2019-03-15T11:20:00.413Z,52.70
2019-03-15T11:22:32.435Z,52.60
2019-03-15T11:25:09.433Z,51.80
2019-03-15T11:27:38.815Z,51.20
2019-03-15T11:30:11.685Z,50.50
2019-03-15T11:32:43.102Z,50.70
2019-03-15T11:35:15.467Z,49.80
2019-03-15T11:37:49.058Z,49.70
2019-03-15T11:40:19.685Z,50.00
2019-03-15T11:42:51.579Z,50.90
2019-03-15T11:45:22.610Z,51.00
2019-03-15T11:48:04.123Z,50.80
2019-03-15T11:50:32.910Z,49.70
2019-03-15T11:53:05.507Z,50.60
2019-03-15T11:55:37.352Z,50.40
2019-03-15T11:58:09.107Z,50.40
2019-03-15T12:00:47.279Z,50.20
2019-03-15T12:03:17.329Z,50.00
2019-03-15T12:05:48.051Z,48.60
2019-03-15T12:08:23.083Z,48.20
2019-03-15T12:10:53.611Z,47.30
2019-03-15T12:13:27.026Z,46.80
2019-03-15T12:15:57.093Z,47.30
2019-03-15T12:18:27.500Z,48.00
2019-03-15T12:20:58.650Z,48.10
2019-03-15T12:23:31.941Z,50.20
2019-03-15T12:26:02.277Z,50.60
2019-03-15T12:28:38.791Z,50.60
2019-03-15T12:31:10.886Z,50.90
2019-03-15T12:33:41.934Z,51.10
2019-03-15T12:36:13.970Z,51.50
2019-03-15T12:38:45.342Z,51.90
2019-03-15T12:41:15.067Z,52.00
2019-03-15T12:43:46.176Z,52.40
2019-03-15T12:46:26.763Z,52.70
2019-03-15T12:49:04.410Z,53.50
2019-03-15T12:51:35.455Z,54.30
2019-03-15T12:54:07.195Z,55.20
2019-03-15T12:56:53.588Z,56.30
2019-03-15T12:59:20.212Z,57.10
2019-03-15T13:01:52.479Z,58.10
2019-03-15T13:04:23.588Z,59.00
2019-03-15T13:06:55.190Z,59.30
2019-03-15T13:09:25.502Z,60.40
2019-03-15T13:12:00.295Z,61.20
2019-03-15T13:14:30.464Z,60.90
2019-03-15T13:17:02.582Z,60.60
2019-03-15T13:19:32.893Z,61.30
2019-03-15T13:22:06.489Z,62.00
2019-03-15T13:24:38.579Z,62.50
2019-03-15T13:27:09.256Z,62.40
2019-03-15T13:29:44.801Z,62.20
2019-03-15T13:32:16.616Z,62.30
2019-03-15T13:34:48.316Z,62.20
2019-03-15T13:37:20.304Z,62.50
2019-03-15T13:39:50.604Z,62.60
2019-03-15T13:42:27.995Z,63.60
2019-03-15T13:45:00.899Z,63.90
2019-03-15T13:47:33.555Z,64.40
2019-03-15T13:50:05.080Z,66.00
2019-03-15T13:52:36.257Z,66.30
2019-03-15T13:55:08.028Z,66.00
2019-03-15T13:57:40.891Z,66.00
2019-03-15T14:00:48.636Z,66.50
2019-03-15T14:03:18.104Z,67.30
2019-03-15T14:05:49.255Z,68.20
2019-03-15T14:08:18.715Z,68.30
2019-03-15T14:10:56.723Z,68.80
2019-03-15T14:13:26.626Z,69.00
2019-03-15T14:15:57.219Z,68.90
2019-03-15T14:18:26.555Z,68.40
2019-03-15T14:21:00.494Z,67.90
2019-03-15T14:23:32.769Z,67.70
2019-03-15T14:26:03.229Z,67.90
2019-03-15T14:28:32.760Z,68.10
2019-03-15T14:31:02.306Z,68.50
2019-03-15T14:33:31.637Z,68.80
2019-03-15T14:36:03.877Z,69.10
2019-03-15T14:38:38.560Z,69.80
2019-03-15T14:41:09.537Z,70.30
2019-03-15T14:43:40.148Z,70.80
2019-03-15T14:46:12.083Z,71.40
2019-03-15T14:48:41.041Z,71.30
2019-03-15T14:51:10.827Z,71.70
2019-03-15T14:53:40.371Z,71.80
2019-03-15T14:56:09.767Z,71.50
2019-03-15T14:58:39.222Z,71.80
2019-03-15T15:01:08.785Z,71.60
2019-03-15T15:03:39.443Z,71.10
2019-03-15T15:06:18.360Z,71.40
2019-03-15T15:08:47.503Z,71.70
2019-03-15T15:11:16.885Z,71.30
2019-03-15T15:13:46.833Z,71.60
2019-03-15T15:16:16.310Z,71.70
2019-03-15T15:18:47.748Z,72.20
2019-03-15T15:21:17.295Z,72.60
2019-03-15T15:23:46.787Z,73.00
2019-03-15T15:26:22.221Z,72.80
2019-03-15T15:29:03.458Z,73.20
2019-03-15T15:31:35.297Z,73.10
2019-03-15T15:34:07.797Z,73.20
2019-03-15T15:36:38.885Z,72.60
2019-03-15T15:39:10.142Z,72.40
2019-03-15T15:41:42.663Z,72.50
2019-03-15T15:44:12.219Z,72.80
2019-03-15T15:46:45.312Z,72.50
2019-03-15T15:49:21.230Z,72.50
2019-03-15T15:51:54.769Z,72.70
2019-03-15T15:54:33.819Z,72.70
2019-03-15T15:57:03.373Z,73.30
2019-03-15T15:59:32.988Z,73.50
2019-03-15T16:02:21.501Z,74.20
2019-03-15T16:04:52.667Z,74.90
2019-03-15T16:07:22.189Z,75.70
2019-03-15T16:09:51.611Z,76.90
2019-03-15T16:12:25.016Z,78.00
2019-03-15T16:14:54.567Z,78.90
2019-03-15T16:17:24.079Z,79.40
2019-03-15T16:19:53.553Z,79.90
2019-03-15T16:22:23.276Z,80.30
2019-03-15T16:25:26.579Z,80.70
2019-03-15T16:31:26.432Z,82.00
2019-03-15T16:34:09.692Z,82.60
2019-03-15T16:36:38.885Z,83.30
2019-03-15T16:40:09.146Z,83.60
2019-03-15T16:42:56.987Z,84.40
2019-03-15T16:45:32.942Z,86.00
2019-03-15T16:48:21.991Z,87.40
2019-03-15T16:50:52.000Z,89.60
2019-03-15T16:53:21.727Z,90.30
2019-03-15T16:55:52.374Z,91.00
2019-03-15T16:58:45.404Z,91.80
2019-03-15T17:01:08.234Z,92.60
2019-03-15T17:03:38.080Z,93.30
2019-03-15T17:08:45.562Z,94.10
2019-03-15T17:11:18.517Z,94.70
2019-03-15T17:13:48.250Z,94.90
2019-03-15T17:16:18.818Z,95.00
2019-03-15T17:19:14.024Z,95.20
2019-03-15T17:22:43.927Z,95.50
2019-03-15T17:25:21.781Z,95.40
2019-03-15T17:27:56.947Z,95.70
2019-03-15T17:30:35.282Z,95.80
2019-03-15T17:33:06.311Z,95.90
2019-03-15T17:35:37.355Z,96.10
2019-03-15T17:38:25.317Z,96.10
2019-03-15T17:41:18.010Z,96.30
2019-03-15T17:43:54.435Z,96.30
2019-03-15T17:46:32.163Z,96.80
2019-03-15T17:49:11.572Z,97.00
2019-03-15T17:51:45.204Z,97.10
2019-03-15T18:00:12.025Z,97.20
2019-03-15T18:02:49.922Z,97.60
2019-03-15T18:05:39.884Z,97.80
2019-03-15T18:08:09.463Z,98.10
2019-03-15T18:10:42.181Z,98.00
2019-03-15T18:13:19.644Z,98.30
2019-03-15T18:16:02.127Z,98.30
2019-03-15T18:21:36.815Z,98.80
2019-03-15T18:24:06.380Z,99.10
2019-03-15T18:26:36.233Z,99.30
2019-03-15T18:29:09.807Z,99.50
2019-03-15T18:31:39.562Z,99.50
2019-03-15T18:34:09.303Z,99.50
2019-03-15T18:36:38.681Z,99.60
2019-03-15T18:39:10.774Z,99.80
2019-03-15T18:41:40.800Z,99.80
2019-03-15T18:44:10.175Z,99.80
2019-03-15T18:46:39.766Z,99.90
2019-03-15T18:49:11.863Z,99.80
2019-03-15T18:51:42.306Z,99.90
2019-03-15T18:54:25.275Z,99.80
2019-03-15T18:56:54.756Z,99.90
2019-03-15T18:59:39.220Z,99.90
2019-03-15T19:01:58.510Z,99.90
2019-03-15T19:04:47.548Z,99.90
2019-03-15T19:07:19.911Z,99.90
2019-03-15T19:09:51.446Z,99.90
2019-03-15T19:12:21.107Z,99.90
2019-03-15T19:14:54.410Z,99.90
2019-03-15T19:17:28.867Z,99.90
2019-03-15T19:20:07.618Z,99.90
2019-03-15T19:22:38.826Z,99.90
2019-03-15T19:25:18.087Z,99.90
2019-03-15T19:27:52.269Z,99.90
2019-03-15T19:30:25.504Z,99.90
2019-03-15T19:32:59.476Z,99.90
2019-03-15T19:35:57.073Z,99.90
2019-03-15T19:38:14.960Z,99.90
2019-03-15T19:41:33.048Z,99.90
2019-03-15T19:44:02.788Z,99.90
2019-03-15T19:46:32.399Z,99.90
2019-03-15T19:49:04.513Z,99.90
2019-03-15T19:51:37.794Z,99.90
2019-03-15T19:54:08.402Z,99.90
2019-03-15T19:56:52.347Z,99.90
2019-03-15T19:59:42.111Z,99.90
2019-03-15T20:03:20.799Z,99.90
2019-03-15T20:05:44.398Z,99.90
2019-03-15T20:08:14.200Z,99.70
2019-03-15T20:10:55.893Z,99.70
2019-03-15T20:13:25.829Z,99.60
2019-03-15T20:15:58.518Z,99.70
2019-03-15T20:18:28.244Z,99.70
2019-03-15T20:20:57.832Z,99.50
2019-03-15T20:23:27.493Z,99.30
2019-03-15T20:25:57.326Z,99.40
2019-03-15T20:28:27.224Z,99.40
2019-03-15T20:30:56.852Z,99.30
2019-03-15T20:33:26.753Z,99.20
2019-03-15T20:35:56.427Z,99.00
2019-03-15T20:38:25.855Z,98.80
2019-03-15T20:40:55.444Z,98.70
2019-03-15T20:43:24.998Z,98.50
2019-03-15T20:46:00.376Z,98.40
2019-03-15T20:48:31.427Z,98.70
2019-03-15T20:51:00.997Z,98.30
2019-03-15T20:53:31.524Z,97.80
2019-03-15T20:56:07.853Z,97.70
2019-03-15T20:58:38.254Z,97.20
2019-03-15T21:01:11.821Z,96.60
2019-03-15T21:03:55.375Z,96.50
2019-03-15T21:06:21.910Z,96.30
2019-03-15T21:08:54.052Z,95.90
2019-03-15T21:11:25.309Z,95.60
2019-03-15T21:13:59.995Z,95.40
2019-03-15T21:16:29.466Z,95.30
2019-03-15T21:18:59.189Z,95.10
2019-03-15T21:21:31.797Z,94.80
2019-03-15T21:24:19.477Z,94.70
2019-03-15T21:26:51.380Z,94.50
2019-03-15T21:29:21.178Z,94.30
2019-03-15T21:31:52.007Z,93.90
2019-03-15T21:34:24.003Z,93.70
2019-03-15T21:36:53.465Z,93.30
2019-03-15T21:39:24.216Z,93.10
2019-03-15T21:41:56.264Z,93.00
2019-03-15T21:44:25.743Z,92.90
2019-03-15T21:46:57.850Z,92.50
2019-03-15T21:49:28.440Z,92.60
2019-03-15T21:51:58.987Z,92.50
2019-03-15T21:54:31.893Z,92.50
2019-03-15T21:57:03.393Z,92.30
2019-03-15T21:59:32.968Z,92.30
2019-03-15T22:02:07.635Z,92.00
2019-03-15T22:04:37.378Z,91.90
2019-03-15T22:07:07.707Z,92.00
2019-03-15T22:09:38.959Z,91.90
2019-03-15T22:12:08.848Z,91.70
2019-03-15T22:14:39.877Z,91.50
2019-03-15T22:17:09.771Z,91.40
2019-03-15T22:19:43.919Z,91.60
2019-03-15T22:22:24.229Z,91.40
2019-03-15T22:24:54.038Z,91.30
2019-03-15T22:27:23.740Z,91.10
2019-03-15T22:30:01.332Z,91.00
2019-03-15T22:32:38.120Z,91.10
2019-03-15T22:35:14.597Z,91.10
2019-03-15T22:37:47.380Z,90.80
2019-03-15T22:40:17.070Z,90.70
2019-03-15T22:43:07.635Z,90.50
2019-03-15T22:45:49.128Z,90.50
2019-03-15T22:48:19.334Z,90.40
2019-03-15T22:50:49.114Z,90.30
2019-03-15T22:53:21.212Z,90.20
2019-03-15T22:55:57.396Z,90.20
2019-03-15T22:58:26.920Z,90.30
2019-03-15T23:00:57.684Z,90.00
2019-03-15T23:03:29.657Z,89.90
2019-03-15T23:05:59.617Z,89.20
2019-03-15T23:08:31.226Z,89.30
2019-03-15T23:11:01.073Z,89.40
2019-03-15T23:13:30.632Z,88.50
2019-03-15T23:16:01.858Z,88.70
2019-03-15T23:18:31.262Z,88.90
2019-03-15T23:21:00.939Z,88.70
2019-03-15T23:23:38.227Z,88.90
2019-03-15T23:26:11.044Z,88.70
2019-03-15T23:28:41.151Z,88.60
2019-03-15T23:31:15.453Z,88.90
2019-03-15T23:33:44.883Z,89.00
2019-03-15T23:36:14.422Z,89.00
2019-03-15T23:38:43.779Z,89.70
2019-03-15T23:41:13.543Z,89.00
2019-03-15T23:43:42.914Z,88.70
2019-03-15T23:46:12.422Z,88.70
2019-03-15T23:48:44.571Z,87.90
2019-03-15T23:51:14.153Z,88.00
2019-03-15T23:53:43.519Z,88.40
2019-03-15T23:56:18.002Z,87.50
2019-03-15T23:58:49.005Z,87.40
